Time;durP1;ratioP1;P1;durP2;ratioP2;P2;SDS_P1;SDS_P2;PMS_P1;PMS_P2;Temp;Humidity;BMP_temperature;BMP_pressure;BME280_temperature;BME280_humidity;BME280_pressure;Samples;Min_cycle;Max_cycle;Signal;HPM_P1;HPM_P2
2023/10/05 00:00:47;;;;;;;7.35;4.22;;;;;;;10.56;96.01;101590.72;4897566;29;20405;-66
2023/10/05 00:03:51;;;;;;;7.68;4.53;;;;;;;10.65;95.59;101591.25;4897659;29;20055;-66
2023/10/05 00:06:57;;;;;;;8.70;4.80;;;;;;;10.63;95.33;101581.78;4897539;29;20104;-66
2023/10/05 00:10:00;;;;;;;11.50;4.72;;;;;;;10.59;95.31;101580.16;4897495;29;20098;-66
2023/10/05 00:13:07;;;;;;;;;;;;;;;10.53;94.97;101581.25;4894453;29;20104;-66
2023/10/05 00:16:20;;;;;;;10.07;4.25;;;;;;;10.52;94.95;101583.91;4878833;29;19922;-66
2023/10/05 00:19:26;;;;;;;7.85;4.38;;;;;;;10.53;94.59;101583.00;4881663;29;20047;-66
2023/10/05 00:22:30;;;;;;;7.13;4.25;;;;;;;10.44;94.75;101571.97;4897423;29;20073;-66
2023/10/05 00:25:35;;;;;;;8.70;4.25;;;;;;;10.43;95.33;101574.63;4896679;29;20116;-66
2023/10/05 00:28:38;;;;;;;7.75;4.22;;;;;;;10.42;94.90;101573.78;4891227;29;20410;-66
2023/10/05 00:31:42;;;;;;;8.88;4.38;;;;;;;10.43;94.96;101566.78;4878802;29;20060;-66
2023/10/05 00:34:51;;;;;;;7.07;4.35;;;;;;;10.37;95.49;101565.25;4878679;29;20137;-66
2023/10/05 00:37:59;;;;;;;14.52;4.53;;;;;;;10.36;94.90;101568.75;4878822;29;20051;-66
2023/10/05 00:41:08;;;;;;;8.35;3.78;;;;;;;10.44;94.50;101565.88;4867060;29;20048;-66
2023/10/05 00:44:12;;;;;;;10.75;4.75;;;;;;;10.39;95.00;101562.56;4866991;29;20052;-66
2023/10/05 00:47:16;;;;;;;11.25;4.32;;;;;;;10.39;95.01;101558.19;4867125;29;20075;-66
2023/10/05 00:50:21;;;;;;;8.57;4.45;;;;;;;10.41;95.13;101556.38;4876365;29;20071;-66
2023/10/05 00:53:24;;;;;;;10.95;4.80;;;;;;;10.42;94.78;101552.84;4885510;29;20055;-66
2023/10/05 00:56:33;;;;;;;9.77;4.40;;;;;;;10.37;94.88;101556.53;4885557;29;20051;-66
2023/10/05 00:59:37;;;;;;;9.10;5.07;;;;;;;10.33;94.66;101561.00;4885474;29;20568;-66
2023/10/05 01:03:33;;;;;;;8.68;4.70;;;;;;;10.35;94.64;101559.22;4885464;29;20120;-66
2023/10/05 01:06:39;;;;;;;9.98;4.40;;;;;;;10.27;95.63;101550.75;4897022;29;20056;-66
2023/10/05 01:14:27;;;;;;;8.57;4.43;;;;;;;10.28;95.32;101546.41;4878952;29;20136;-66
2023/10/05 01:17:30;;;;;;;15.93;4.93;;;;;;;10.33;95.43;101547.09;4889820;29;20105;-66
2023/10/05 01:20:37;;;;;;;;;;;;;;;10.39;95.40;101554.72;4878937;29;20068;-66
2023/10/05 01:23:41;;;;;;;9.70;4.63;;;;;;;10.37;95.05;101548.69;4887685;29;19970;-67
2023/10/05 01:26:44;;;;;;;12.50;4.82;;;;;;;10.25;95.82;101544.72;4885470;29;20050;-66
2023/10/05 01:29:49;;;;;;;9.65;4.40;;;;;;;10.26;96.25;101546.47;4885430;29;20116;-66
2023/10/05 01:32:54;;;;;;;9.43;3.85;;;;;;;10.20;96.31;101539.63;4897108;29;20099;-66
2023/10/05 01:35:58;;;;;;;10.02;4.45;;;;;;;10.22;96.28;101535.22;4897092;29;20511;-66
2023/10/05 01:39:08;;;;;;;9.48;4.72;;;;;;;10.19;96.57;101534.47;4900272;29;20516;-67
2023/10/05 01:42:14;;;;;;;9.20;4.68;;;;;;;10.23;96.47;101533.47;4900261;29;20052;-66
2023/10/05 01:45:38;;;;;;;11.75;4.82;;;;;;;10.26;96.59;101541.22;4888565;29;20120;-67
2023/10/05 01:49:00;;;;;;;9.65;4.97;;;;;;;10.27;96.53;101536.84;4900082;29;20079;-66
2023/10/05 01:52:22;;;;;;;8.83;4.27;;;;;;;10.30;96.35;101548.03;4900024;29;20055;-66
2023/10/05 01:55:27;;;;;;;12.95;5.25;;;;;;;10.30;95.65;101539.34;4900109;29;20060;-66
2023/10/05 01:58:33;;;;;;;9.10;5.00;;;;;;;10.29;95.91;101535.91;4888238;29;20508;-66
2023/10/05 02:01:39;;;;;;;12.73;5.07;;;;;;;10.32;95.82;101543.63;4899948;29;20147;-67
2023/10/05 02:04:43;;;;;;;11.98;4.80;;;;;;;10.20;96.22;101542.25;4899834;29;20044;-66
2023/10/05 02:07:50;;;;;;;11.90;5.38;;;;;;;10.21;96.31;101543.97;4888194;29;20071;-66
2023/10/05 02:10:54;;;;;;;13.77;4.75;;;;;;;10.20;96.41;101539.63;4879362;29;20060;-66
2023/10/05 02:14:03;;;;;;;12.85;5.45;;;;;;;10.25;96.10;101550.81;4880876;29;20067;-67
2023/10/05 02:17:08;;;;;;;11.15;5.03;;;;;;;10.24;96.41;101550.84;4892431;29;20047;-67
2023/10/05 02:20:37;;;;;;;13.18;5.45;;;;;;;10.27;96.22;101563.00;4899519;29;20418;-67
2023/10/05 02:23:42;;;;;;;13.10;5.78;;;;;;;10.29;95.98;101551.56;4899471;29;20118;-67
2023/10/05 02:30:08;;;;;;;10.93;5.47;;;;;;;10.29;96.49;101541.13;4879944;29;20540;-66
2023/10/05 02:33:12;;;;;;;10.80;4.53;;;;;;;10.30;96.70;101547.19;4886778;29;20100;-66
2023/10/05 02:36:26;;;;;;;10.38;5.20;;;;;;;10.18;96.65;101549.31;4887532;29;20465;-66
2023/10/05 02:39:32;;;;;;;8.63;4.28;;;;;;;10.22;96.68;101560.50;4887664;29;20136;-66
2023/10/05 02:42:36;;;;;;;9.32;4.78;;;;;;;10.20;97.11;101552.72;4899231;29;20130;-66
2023/10/05 02:45:40;;;;;;;8.68;4.95;;;;;;;10.28;96.69;101555.09;4898992;29;20047;-66
2023/10/05 02:48:44;;;;;;;10.35;4.93;;;;;;;10.25;96.36;101552.56;4876214;29;20577;-66
2023/10/05 02:51:47;;;;;;;9.48;4.47;;;;;;;10.15;97.18;101544.19;4898843;29;20523;-66
2023/10/05 02:54:50;;;;;;;9.80;4.47;;;;;;;10.22;97.13;101544.84;4887060;29;20088;-66
2023/10/05 02:57:53;;;;;;;;;;;;;;;10.25;97.21;101549.94;4899165;29;20055;-67
2023/10/05 03:00:58;;;;;;;9.82;4.93;;;;;;;10.28;97.06;101560.34;4898835;29;20018;-66
2023/10/05 03:04:09;;;;;;;12.60;4.88;;;;;;;10.31;96.83;101559.38;4898850;29;20065;-66
2023/10/05 03:07:17;;;;;;;14.23;4.85;;;;;;;10.26;96.74;101562.13;4887075;29;20051;-66
2023/10/05 03:10:23;;;;;;;14.13;5.57;;;;;;;10.30;96.71;101565.50;4898463;29;20444;-67
2023/10/05 03:13:27;;;;;;;13.70;5.45;;;;;;;10.30;96.67;101562.88;4883909;29;20044;-67
2023/10/05 03:16:42;;;;;;;9.98;4.70;;;;;;;10.38;96.13;101561.72;4867042;29;20457;-67
2023/10/05 03:19:46;;;;;;;15.20;4.97;;;;;;;10.32;96.34;101553.25;4877805;29;20087;-67
2023/10/05 03:22:49;;;;;;;8.50;4.20;;;;;;;10.27;96.75;101561.22;4877274;29;20044;-67
2023/10/05 03:25:54;;;;;;;12.07;5.93;;;;;;;10.32;96.83;101550.63;4876944;29;20138;-67
2023/10/05 03:29:00;;;;;;;11.02;5.82;;;;;;;10.30;97.07;101536.75;4892466;29;20095;-66
2023/10/05 03:35:11;;;;;;;10.95;4.28;;;;;;;10.31;96.65;101544.56;4898109;29;20528;-67
2023/10/05 03:38:19;;;;;;;10.93;5.00;;;;;;;10.29;96.71;101538.50;4886402;29;20111;-67
2023/10/05 03:41:25;;;;;;;12.10;4.75;;;;;;;10.31;96.75;101536.72;4886565;29;20063;-67
2023/10/05 03:44:31;;;;;;;11.45;5.38;;;;;;;10.27;96.93;101544.69;4886349;29;20057;-67
2023/10/05 03:47:38;;;;;;;12.93;5.32;;;;;;;10.21;97.33;101548.31;4886230;29;20104;-67
2023/10/05 03:50:42;;;;;;;8.18;4.32;;;;;;;10.07;97.94;101543.59;4886336;29;20517;-67
2023/10/05 03:53:51;;;;;;;8.85;4.30;;;;;;;10.18;97.43;101532.78;4886264;29;20488;-67
2023/10/05 03:57:10;;;;;;;9.15;4.10;;;;;;;10.16;97.56;101540.66;4886249;29;20132;-68
2023/10/05 04:00:23;;;;;;;9.23;4.97;;;;;;;10.15;97.82;101533.75;4886113;29;20071;-67
2023/10/05 04:03:27;;;;;;;;;;;;;;;10.23;97.72;101534.31;4886529;29;20043;-66
2023/10/05 04:06:31;;;;;;;15.73;5.00;;;;;;;10.34;97.09;101531.38;4897785;29;19957;-68
2023/10/05 04:09:35;;;;;;;13.52;4.72;;;;;;;10.35;96.58;101537.44;4896528;29;20064;-67
2023/10/05 04:12:40;;;;;;;9.52;4.80;;;;;;;10.37;96.36;101533.88;4887465;29;20181;-67
2023/10/05 04:15:43;;;;;;;12.40;4.20;;;;;;;10.34;96.89;101528.75;4883330;29;20079;-67
2023/10/05 04:18:47;;;;;;;;;;;;;;;10.37;96.36;101522.53;4886220;29;20051;-67
2023/10/05 04:21:52;;;;;;;16.00;5.22;;;;;;;10.38;96.24;101521.66;4897446;29;19970;-67
2023/10/05 04:24:55;;;;;;;11.95;5.78;;;;;;;10.27;97.03;101511.56;4897545;29;20056;-68
2023/10/05 04:27:59;;;;;;;;;;;;;;;9.96;99.26;101514.38;4878947;29;20048;-67
2023/10/05 04:31:11;;;;;;;;;;;;;;;10.05;99.61;101521.03;4879072;29;19922;-67
2023/10/05 04:34:18;;;;;;;17.23;6.05;;;;;;;10.21;99.76;101519.56;4879003;29;19922;-67
2023/10/05 04:37:21;;;;;;;11.77;7.18;;;;;;;10.31;98.33;101517.56;4878635;29;20111;-67
2023/10/05 04:40:25;;;;;;;12.68;4.88;;;;;;;10.32;97.50;101520.09;4878493;29;20044;-68
2023/10/05 04:43:28;;;;;;;10.60;5.18;;;;;;;10.33;97.45;101519.19;4876702;29;20052;-67
2023/10/05 04:46:32;;;;;;;7.88;4.40;;;;;;;10.33;97.25;101521.81;4876650;29;20079;-67
2023/10/05 04:49:37;;;;;;;11.52;4.70;;;;;;;10.32;97.57;101527.09;4876536;29;20112;-67
2023/10/05 04:52:41;;;;;;;19.13;4.88;;;;;;;10.30;97.76;101521.91;4876483;29;20056;-66
2023/10/05 04:55:46;;;;;;;10.65;5.28;;;;;;;10.28;97.65;101510.66;4876438;29;20193;-66
2023/10/05 05:02:35;;;;;;;10.82;5.03;;;;;;;10.25;97.92;101523.81;4878444;29;20108;-66
2023/10/05 05:05:53;;;;;;;10.48;4.85;;;;;;;10.18;98.13;101520.56;4878362;29;20439;-66
2023/10/05 05:08:58;;;;;;;6.85;4.00;;;;;;;10.27;97.88;101524.63;4866645;29;20137;-67
2023/10/05 05:12:05;;;;;;;9.18;4.88;;;;;;;10.29;97.93;101524.59;4878390;29;20167;-66
2023/10/05 05:15:08;;;;;;;15.50;6.03;;;;;;;10.33;97.71;101529.63;4881799;29;20105;-65
2023/10/05 05:18:15;;;;;;;13.15;4.97;;;;;;;10.28;97.79;101531.59;4882037;29;20361;-66
2023/10/05 05:21:18;;;;;;;8.77;4.30;;;;;;;10.27;97.37;101540.31;4881972;29;20097;-65
2023/10/05 05:24:21;;;;;;;9.10;4.30;;;;;;;10.23;97.31;101538.69;4881989;29;20048;-66
2023/10/05 05:27:24;;;;;;;;;;;;;;;10.23;97.51;101530.84;4882241;29;20181;-66
2023/10/05 05:30:29;;;;;;;9.32;4.45;;;;;;;10.24;98.01;101533.41;4881703;29;19922;-65
2023/10/05 05:33:32;;;;;;;9.60;4.25;;;;;;;10.30;97.60;101527.13;4881584;29;20055;-66
2023/10/05 05:36:43;;;;;;;9.48;4.40;;;;;;;10.33;96.98;101536.63;4881125;29;20104;-65
2023/10/05 05:39:47;;;;;;;13.35;4.75;;;;;;;10.27;96.97;101542.94;4879968;29;20047;-65
2023/10/05 05:42:54;;;;;;;9.65;4.05;;;;;;;10.32;96.79;101534.94;4878967;29;20100;-65
2023/10/05 05:45:58;;;;;;;6.45;4.68;;;;;;;10.27;96.59;101539.47;4879437;29;20101;-65
2023/10/05 05:49:08;;;;;;;11.32;4.95;;;;;;;10.30;96.78;101541.97;4879598;29;20099;-65
2023/10/05 05:52:12;;;;;;;7.63;3.95;;;;;;;10.31;96.56;101547.16;4879182;29;20071;-65
2023/10/05 05:55:21;;;;;;;11.52;4.10;;;;;;;10.30;96.41;101534.97;4880132;29;20561;-66
2023/10/05 05:58:25;;;;;;;7.18;4.07;;;;;;;10.26;96.58;101538.63;4879845;29;20075;-65
2023/10/05 06:01:28;;;;;;;7.75;4.65;;;;;;;10.30;96.87;101526.28;4879841;29;20143;-66
2023/10/05 06:04:32;;;;;;;8.10;3.97;;;;;;;10.34;96.16;101536.59;4879868;29;20119;-65
2023/10/05 06:07:43;;;;;;;10.57;4.30;;;;;;;10.36;96.17;101536.53;4879789;29;20048;-65
2023/10/05 06:10:47;;;;;;;8.13;3.78;;;;;;;10.34;96.09;101541.81;4879693;29;20097;-65
2023/10/05 06:13:50;;;;;;;10.65;5.13;;;;;;;10.31;96.31;101543.69;4879518;29;20044;-65
2023/10/05 06:16:54;;;;;;;11.10;4.32;;;;;;;10.38;96.38;101540.81;4889786;29;20143;-65
2023/10/05 06:19:57;;;;;;;10.25;4.22;;;;;;;10.40;96.62;101540.72;4898212;29;20047;-63
2023/10/05 06:23:00;;;;;;;;;;;;;;;10.43;97.37;101544.13;4891639;29;20048;-66
2023/10/05 06:26:03;;;;;;;8.43;3.75;;;;;;;10.54;96.50;101545.50;4879343;29;20351;-67
2023/10/05 06:29:08;;;;;;;8.35;4.07;;;;;;;10.52;96.58;101535.06;4879204;29;20118;-66
2023/10/05 06:32:12;;;;;;;6.68;4.13;;;;;;;10.55;96.63;101534.97;4881849;29;20051;-66
2023/10/05 06:35:17;;;;;;;;;;;;;;;10.52;96.93;101529.00;4898587;29;20129;-67
2023/10/05 06:38:20;;;;;;;11.82;4.72;;;;;;;10.58;97.10;101531.38;4897850;29;19946;-67
2023/10/05 06:41:24;;;;;;;8.65;4.28;;;;;;;10.57;96.87;101524.47;4896639;29;20051;-67
2023/10/05 06:44:28;;;;;;;11.63;4.70;;;;;;;10.53;98.16;101534.19;4896738;29;20099;-66
2023/10/05 06:47:37;;;;;;;8.52;4.15;;;;;;;10.66;97.35;101542.44;4898015;29;20417;-66
2023/10/05 06:50:41;;;;;;;9.48;4.20;;;;;;;10.66;97.14;101545.06;4897749;29;20059;-67
2023/10/05 06:53:44;;;;;;;7.22;3.92;;;;;;;10.72;97.11;101560.53;4897631;29;20572;-67
2023/10/05 06:56:49;;;;;;;14.55;4.50;;;;;;;10.76;97.03;101562.13;4897784;29;20056;-67
2023/10/05 06:59:55;;;;;;;9.40;5.15;;;;;;;10.76;97.23;101567.34;4897590;29;20476;-66
2023/10/05 07:02:59;;;;;;;11.57;4.55;;;;;;;10.83;97.12;101568.81;4897319;29;20043;-67
2023/10/05 07:06:05;;;;;;;11.10;4.50;;;;;;;10.92;97.02;101568.50;4897777;29;20051;-67
2023/10/05 07:09:11;;;;;;;11.65;5.18;;;;;;;11.01;96.77;101576.88;4897601;29;20060;-66
2023/10/05 07:12:15;;;;;;;12.32;5.85;;;;;;;10.96;96.36;101563.16;4897423;29;20051;-66
2023/10/05 07:15:22;;;;;;;17.95;5.70;;;;;;;10.98;97.24;101566.56;4897405;29;20107;-67
2023/10/05 07:18:27;;;;;;;10.98;4.88;;;;;;;11.07;97.19;101571.44;4875754;29;20107;-67
2023/10/05 07:21:33;;;;;;;10.75;4.65;;;;;;;11.16;97.18;101581.56;4897510;29;20499;-66
2023/10/05 07:24:37;;;;;;;10.18;4.47;;;;;;;11.22;98.13;101578.72;4897262;29;20052;-67
2023/10/05 07:27:41;;;;;;;10.63;4.68;;;;;;;11.28;98.22;101581.09;4897395;29;20051;-67
2023/10/05 07:30:48;;;;;;;8.52;5.55;;;;;;;11.35;97.71;101577.31;4885336;29;20072;-67
2023/10/05 07:33:52;;;;;;;15.18;7.05;;;;;;;11.30;98.42;101579.28;4896976;29;20520;-66
2023/10/05 07:36:57;;;;;;;11.75;4.85;;;;;;;11.35;98.35;101576.47;4897229;29;20167;-66
2023/10/05 07:40:01;;;;;;;11.73;5.30;;;;;;;11.47;98.27;101569.91;4896955;29;20060;-66
2023/10/05 07:43:06;;;;;;;10.18;3.95;;;;;;;11.54;98.24;101572.22;4896700;29;20428;-66
2023/10/05 07:46:09;;;;;;;13.30;5.05;;;;;;;11.64;97.64;101570.09;4896825;29;20056;-66
2023/10/05 07:49:13;;;;;;;10.05;5.15;;;;;;;11.68;97.58;101565.56;4896592;29;20184;-66
2023/10/05 07:52:17;;;;;;;10.82;4.55;;;;;;;11.76;97.73;101566.13;4896622;29;20055;-66
2023/10/05 07:55:20;;;;;;;9.48;4.63;;;;;;;11.73;97.67;101561.88;4896753;29;20135;-66
2023/10/05 07:58:23;;;;;;;11.32;4.40;;;;;;;11.81;97.57;101564.19;4896441;29;20136;-66
2023/10/05 08:01:27;;;;;;;14.43;4.85;;;;;;;11.86;97.45;101584.06;4896395;29;20104;-66
2023/10/05 08:04:30;;;;;;;11.10;5.15;;;;;;;12.00;97.11;101580.03;4896480;29;20462;-66
2023/10/05 08:07:33;;;;;;;13.70;5.07;;;;;;;12.07;97.24;101581.50;4896646;29;20094;-66
2023/10/05 08:10:38;;;;;;;13.55;5.18;;;;;;;11.93;100.00;101591.66;4894237;29;20055;-66
2023/10/05 08:13:43;;;;;;;10.07;4.78;;;;;;;12.03;100.00;101600.88;4880785;29;20048;-66
2023/10/05 08:16:47;;;;;;;15.32;4.82;;;;;;;12.06;100.00;101609.47;4878036;29;20192;-66
2023/10/05 08:19:51;;;;;;;12.85;5.07;;;;;;;12.19;100.00;101603.69;4877755;29;20145;-66
2023/10/05 08:22:56;;;;;;;8.43;4.07;;;;;;;12.32;100.00;101597.91;4876826;29;20188;-66
2023/10/05 08:25:59;;;;;;;14.15;5.03;;;;;;;12.36;100.00;101597.75;4880301;29;20039;-66
2023/10/05 08:29:06;;;;;;;9.05;4.45;;;;;;;12.48;96.67;101608.59;4896272;29;20070;-66
2023/10/05 08:32:13;;;;;;;13.13;4.10;;;;;;;12.72;94.85;101611.06;4896085;29;20523;-66
2023/10/05 08:35:21;;;;;;;13.20;5.07;;;;;;;12.76;92.21;101615.25;4896131;29;20520;-66
2023/10/05 08:38:24;;;;;;;12.60;4.40;;;;;;;12.86;91.43;101610.44;4896561;29;20063;-66
2023/10/05 08:41:32;;;;;;;15.57;4.03;;;;;;;12.90;89.50;101604.16;4884618;29;20120;-66
2023/10/05 08:44:41;;;;;;;12.15;3.90;;;;;;;12.92;88.28;101610.16;4896601;29;20055;-66
2023/10/05 08:47:46;;;;;;;11.82;4.30;;;;;;;12.97;87.11;101611.66;4898389;29;20083;-66
2023/10/05 08:50:53;;;;;;;12.95;5.00;;;;;;;13.03;87.13;101614.03;4900225;29;20081;-66
2023/10/05 08:53:57;;;;;;;13.90;4.22;;;;;;;13.13;86.38;101606.56;4899933;29;20507;-66
2023/10/05 08:57:09;;;;;;;16.80;4.72;;;;;;;13.33;86.29;101599.59;4900111;29;20585;-66
2023/10/05 09:00:15;;;;;;;10.20;4.10;;;;;;;13.44;85.44;101599.94;4899899;29;20047;-66
2023/10/05 09:03:35;;;;;;;8.77;4.22;;;;;;;13.46;84.74;101608.59;4900199;29;20116;-66
2023/10/05 09:06:47;;;;;;;14.75;3.35;;;;;;;13.52;83.48;101610.94;4899781;29;20071;-66
2023/10/05 09:09:57;;;;;;;9.73;3.78;;;;;;;13.53;83.19;101617.91;4887777;29;20100;-66
2023/10/05 09:13:07;;;;;;;13.60;4.22;;;;;;;13.67;82.48;101612.84;4894572;29;20462;-66
2023/10/05 09:16:15;;;;;;;15.93;5.95;;;;;;;13.75;81.63;101611.59;4880674;29;20104;-66
2023/10/05 09:19:26;;;;;;;10.68;4.32;;;;;;;13.85;80.63;101610.25;4880930;29;20059;-66
2023/10/05 09:22:31;;;;;;;13.23;4.70;;;;;;;13.91;80.35;101615.19;4896497;29;20140;-66
2023/10/05 09:25:45;;;;;;;12.25;4.60;;;;;;;13.92;80.42;101616.91;4899366;29;20107;-66
2023/10/05 09:28:52;;;;;;;9.93;3.58;;;;;;;13.92;79.90;101622.16;4886992;29;20052;-66
2023/10/05 09:31:56;;;;;;;9.63;3.63;;;;;;;13.88;79.57;101625.84;4880496;29;20061;-66
2023/10/05 09:35:00;;;;;;;11.98;3.97;;;;;;;13.84;79.87;101629.56;4880628;29;20047;-66
2023/10/05 09:38:11;;;;;;;8.90;3.35;;;;;;;13.95;79.84;101633.38;4880446;29;20071;-66
2023/10/05 09:41:18;;;;;;;10.15;3.55;;;;;;;13.88;79.25;101642.50;4880518;29;20055;-66
2023/10/05 09:44:25;;;;;;;10.27;3.35;;;;;;;13.90;79.84;101648.53;4868696;29;20147;-66
2023/10/05 09:47:35;;;;;;;13.23;2.97;;;;;;;13.96;79.07;101644.75;4880189;29;20060;-66
2023/10/05 09:50:40;;;;;;;9.43;4.13;;;;;;;14.02;78.50;101643.59;4880370;29;20108;-66
2023/10/05 09:53:44;;;;;;;11.55;3.92;;;;;;;14.02;78.44;101662.88;4880157;29;20092;-66
2023/10/05 09:56:47;;;;;;;10.27;3.63;;;;;;;14.09;78.70;101643.22;4880142;29;20665;-66
2023/10/05 10:00:00;;;;;;;15.60;4.30;;;;;;;14.07;78.81;101652.97;4880277;29;20474;-66
2023/10/05 10:03:04;;;;;;;11.50;3.50;;;;;;;14.19;78.08;101651.50;4868681;29;20056;-66
2023/10/05 10:06:12;;;;;;;9.20;3.08;;;;;;;14.12;78.38;101645.69;4880009;29;20059;-66
2023/10/05 10:09:15;;;;;;;17.40;4.50;;;;;;;14.08;78.12;101644.16;4879979;29;20144;-67
2023/10/05 10:12:38;;;;;;;11.88;3.53;;;;;;;14.11;79.15;101644.00;4879468;29;20105;-66
2023/10/05 10:15:49;;;;;;;13.30;3.60;;;;;;;14.14;78.53;101641.22;4879749;29;20051;-66
2023/10/05 10:19:06;;;;;;;7.75;2.83;;;;;;;14.24;78.54;101643.41;4879785;29;20105;-67
2023/10/05 10:22:12;;;;;;;9.13;3.38;;;;;;;14.15;78.04;101645.56;4879627;29;20093;-66
2023/10/05 10:25:40;;;;;;;9.23;3.10;;;;;;;14.25;77.71;101653.00;4879586;29;20063;-66
2023/10/05 10:28:56;;;;;;;8.77;3.10;;;;;;;14.34;77.88;101656.00;4879595;29;20147;-66
2023/10/05 10:32:18;;;;;;;8.52;3.13;;;;;;;14.36;77.80;101659.44;4879343;29;20653;-66
2023/10/05 10:35:27;;;;;;;10.80;3.50;;;;;;;14.36;77.83;101653.31;4879617;29;20052;-66
2023/10/05 10:38:30;;;;;;;9.30;3.70;;;;;;;14.35;78.04;101662.13;4867745;29;20124;-67
2023/10/05 10:41:53;;;;;;;9.80;2.47;;;;;;;14.37;77.67;101657.66;4879362;29;20108;-67
2023/10/05 10:48:00;;;;;;;11.13;2.97;;;;;;;14.49;77.55;101662.28;4879127;29;20083;-67
2023/10/05 10:51:10;;;;;;;8.70;2.90;;;;;;;14.50;77.64;101661.34;4879340;29;20124;-66
2023/10/05 10:54:15;;;;;;;9.43;3.53;;;;;;;14.43;78.03;101658.19;4879298;29;20100;-66
2023/10/05 10:57:22;;;;;;;10.68;3.42;;;;;;;14.52;77.48;101659.53;4879190;29;20068;-67
2023/10/05 11:04:04;;;;;;;8.75;3.20;;;;;;;14.49;77.81;101643.03;4872143;29;20063;-66
2023/10/05 11:07:07;;;;;;;9.75;3.10;;;;;;;14.55;77.50;101648.88;4879135;29;20101;-67
2023/10/05 11:10:18;;;;;;;11.25;3.08;;;;;;;14.63;77.44;101646.66;4878518;29;20130;-66
2023/10/05 11:13:24;;;;;;;7.47;2.63;;;;;;;14.65;77.22;101644.81;4886568;29;20101;-66
2023/10/05 11:16:49;;;;;;;7.78;3.38;;;;;;;14.69;76.97;101637.63;4878435;29;20044;-67
2023/10/05 11:19:52;;;;;;;8.32;2.72;;;;;;;14.78;76.58;101623.13;4878947;29;20132;-67
2023/10/05 11:23:03;;;;;;;10.00;2.80;;;;;;;14.75;76.45;101604.84;4878573;29;20123;-67
2023/10/05 11:26:26;;;;;;;10.07;3.03;;;;;;;14.69;76.95;101599.91;4878814;29;20611;-67
2023/10/05 11:29:29;;;;;;;7.85;3.13;;;;;;;14.62;76.92;101591.50;4878779;29;20056;-70
2023/10/05 11:32:33;;;;;;;11.50;2.63;;;;;;;14.68;77.05;101585.03;4882316;29;20066;-68
2023/10/05 11:35:42;;;;;;;7.72;2.78;;;;;;;14.68;77.47;101585.91;4897253;29;20057;-68
2023/10/05 11:38:48;;;;;;;8.65;3.20;;;;;;;14.71;77.27;101598.91;4897127;29;20434;-67
2023/10/05 11:41:52;;;;;;;8.43;3.25;;;;;;;14.63;78.04;101601.91;4897076;29;20048;-68
2023/10/05 11:44:59;;;;;;;8.30;4.35;;;;;;;14.72;77.15;101608.50;4897147;29;20055;-67
2023/10/05 11:48:11;;;;;;;10.43;3.63;;;;;;;14.68;77.76;101613.97;4897140;29;20116;-66
2023/10/05 11:51:19;;;;;;;9.85;2.70;;;;;;;14.72;77.05;101608.50;4896984;29;20111;-64
2023/10/05 11:54:33;;;;;;;8.05;2.60;;;;;;;14.65;77.24;101607.97;4896936;29;20095;-67
2023/10/05 11:57:41;;;;;;;6.47;2.55;;;;;;;14.62;77.26;101610.75;4896893;29;20107;-67
2023/10/05 12:00:45;;;;;;;10.30;2.72;;;;;;;14.70;77.07;101620.88;4885331;29;20088;-67
2023/10/05 12:03:50;;;;;;;5.90;2.45;;;;;;;14.67;77.13;101622.81;4897029;29;20050;-68
2023/10/05 12:07:00;;;;;;;13.27;2.58;;;;;;;14.69;77.40;101616.56;4897102;29;20079;-69
2023/10/05 12:10:09;;;;;;;12.52;3.85;;;;;;;14.77;77.26;101619.66;4896532;29;20139;-68
2023/10/05 12:13:15;;;;;;;9.80;3.17;;;;;;;14.80;77.05;101595.75;4883824;29;20099;-67
2023/10/05 12:16:18;;;;;;;9.07;2.67;;;;;;;14.79;77.06;101586.16;4896504;29;20074;-68
2023/10/05 12:19:29;;;;;;;8.15;2.70;;;;;;;14.86;76.59;101586.69;4893786;29;20177;-66
2023/10/05 12:22:33;;;;;;;11.52;4.07;;;;;;;14.89;77.10;101583.91;4876985;29;20132;-66
2023/10/05 12:25:36;;;;;;;11.77;3.50;;;;;;;14.96;77.25;101585.25;4877710;29;20423;-67
2023/10/05 12:28:43;;;;;;;9.98;3.63;;;;;;;15.04;76.70;101588.34;4889126;29;20079;-67
2023/10/05 12:31:51;;;;;;;7.90;3.25;;;;;;;15.07;76.24;101593.44;4896305;29;20572;-67
2023/10/05 12:34:56;;;;;;;8.38;3.10;;;;;;;15.10;75.99;101597.72;4896083;29;20067;-65
2023/10/05 12:37:59;;;;;;;11.20;3.30;;;;;;;15.13;76.09;101602.81;4895994;29;20096;-65
2023/10/05 12:41:13;;;;;;;9.00;3.38;;;;;;;15.16;76.07;101607.06;4896627;29;20051;-67
2023/10/05 12:44:17;;;;;;;9.10;3.47;;;;;;;15.03;75.88;101605.09;4895666;29;20056;-68
2023/10/05 12:47:21;;;;;;;10.02;4.22;;;;;;;15.08;76.37;101605.69;4895946;29;20070;-68
2023/10/05 12:50:26;;;;;;;8.68;3.67;;;;;;;15.08;76.68;101605.69;4895951;29;20063;-67
2023/10/05 12:53:29;;;;;;;10.25;4.28;;;;;;;15.16;75.80;101609.72;4896091;29;20529;-67
2023/10/05 12:57:08;;;;;;;9.70;2.53;;;;;;;15.35;74.35;101605.13;4896095;29;20047;-68
2023/10/05 13:00:20;;;;;;;9.87;2.97;;;;;;;15.53;73.55;101585.63;4896397;29;20044;-69
2023/10/05 13:03:25;;;;;;;8.73;3.13;;;;;;;15.62;73.44;101579.00;4896538;29;20328;-70
2023/10/05 13:06:29;;;;;;;8.60;3.53;;;;;;;15.50;73.32;101591.06;4894994;29;20046;-69
2023/10/05 13:09:33;;;;;;;13.23;4.07;;;;;;;15.36;73.33;101588.38;4895330;29;20135;-70
2023/10/05 13:12:36;;;;;;;8.82;3.28;;;;;;;15.62;73.05;101588.69;4895952;29;20144;-69
2023/10/05 13:15:41;;;;;;;9.38;3.47;;;;;;;15.90;71.76;101590.66;4895969;29;20095;-70
2023/10/05 13:18:45;;;;;;;14.25;3.38;;;;;;;15.59;72.45;101598.47;4877399;29;20051;-70
2023/10/05 13:21:50;;;;;;;17.33;5.28;;;;;;;15.71;72.29;101582.94;4877034;29;20044;-70
2023/10/05 13:24:57;;;;;;;10.52;4.20;;;;;;;15.87;71.44;101594.31;4885743;29;20127;-68
2023/10/05 13:28:03;;;;;;;10.07;3.67;;;;;;;16.24;70.16;101587.75;4895752;29;20051;-68
2023/10/05 13:31:07;;;;;;;9.18;3.75;;;;;;;16.28;69.35;101596.34;4896347;29;20059;-69
2023/10/05 13:34:21;;;;;;;10.93;3.35;;;;;;;16.03;70.77;101597.75;4887045;29;20106;-68
2023/10/05 13:37:27;;;;;;;9.70;4.45;;;;;;;15.80;71.45;101592.97;4900115;29;20128;-68
2023/10/05 13:40:34;;;;;;;11.02;3.75;;;;;;;15.67;71.79;101605.16;4888167;29;20103;-69
2023/10/05 13:43:39;;;;;;;12.75;4.25;;;;;;;15.74;71.32;101609.13;4899698;29;20161;-68
2023/10/05 13:46:45;;;;;;;9.30;2.90;;;;;;;16.11;70.23;101601.72;4899659;29;20047;-69
2023/10/05 13:49:55;;;;;;;10.43;3.60;;;;;;;17.83;63.07;101592.00;4900039;29;20079;-68
2023/10/05 13:53:26;;;;;;;10.07;2.80;;;;;;;16.93;65.96;101602.06;4900163;29;20551;-68
2023/10/05 13:56:53;;;;;;;8.05;2.63;;;;;;;16.68;66.99;101591.28;4889904;29;20063;-69
2023/10/05 13:59:57;;;;;;;7.28;2.80;;;;;;;16.87;67.04;101591.03;4899257;29;20047;-70
2023/10/05 14:03:02;;;;;;;7.05;2.83;;;;;;;16.67;66.41;101586.94;4899289;29;20160;-69
2023/10/05 14:06:08;;;;;;;14.82;3.28;;;;;;;16.96;65.83;101583.38;4899135;29;20067;-69
2023/10/05 14:09:13;;;;;;;36.72;5.88;;;;;;;17.67;63.08;101592.09;4897916;29;20479;-70
2023/10/05 14:12:17;;;;;;;18.55;3.92;;;;;;;17.72;62.37;101590.03;4877964;29;20091;-69
2023/10/05 14:15:23;;;;;;;9.77;4.13;;;;;;;18.81;58.67;101599.44;4880295;29;20051;-69
2023/10/05 14:18:28;;;;;;;6.60;3.17;;;;;;;18.71;59.55;101605.47;4880003;29;20048;-75
2023/10/05 14:21:31;;;;;;;13.65;3.78;;;;;;;18.63;60.46;101608.63;4879827;29;20047;-67
2023/10/05 14:24:36;;;;;;;13.35;3.10;;;;;;;18.90;58.76;101610.38;4861129;29;20092;-68
2023/10/05 14:27:40;;;;;;;8.15;2.95;;;;;;;18.12;60.35;101606.81;4860640;29;20113;-68
2023/10/05 14:30:49;;;;;;;6.75;2.30;;;;;;;18.14;60.62;101601.38;4861148;29;20052;-69
2023/10/05 14:33:55;;;;;;;11.70;3.80;;;;;;;17.82;61.24;101609.66;4860749;29;20133;-69
2023/10/05 14:37:07;;;;;;;12.32;4.78;;;;;;;17.46;62.91;101598.81;4860985;29;20118;-68
2023/10/05 14:40:21;;;;;;;9.90;3.95;;;;;;;16.88;65.39;101596.25;4861030;29;20140;-68
2023/10/05 14:43:30;;;;;;;9.40;3.40;;;;;;;16.37;67.59;101584.34;4861519;29;20052;-68
2023/10/05 14:46:34;;;;;;;9.18;3.13;;;;;;;16.38;67.79;101586.91;4860844;29;20057;-69
2023/10/05 14:49:38;;;;;;;9.70;3.45;;;;;;;16.88;66.32;101585.69;4861077;29;20108;-68